sensor_id;sensor_type;location;lat;lon;timestamp;P1;durP1;ratioP1;P2;durP2;ratioP2
39434;SDS011;66825;51.880;-0.518;2024-03-25T00:00:20;1.67;;;1.10;;
39434;SDS011;66825;51.880;-0.518;2024-03-25T00:02:47;1.27;;;1.00;;
39434;SDS011;66825;51.880;-0.518;2024-03-25T00:05:13;1.80;;;1.00;;
39434;SDS011;66825;51.880;-0.518;2024-03-25T00:07:40;1.55;;;1.05;;
39434;SDS011;66825;51.880;-0.518;2024-03-25T00:10:06;1.45;;;1.17;;
39434;SDS011;66825;51.880;-0.518;2024-03-25T00:12:33;1.52;;;1.10;;
39434;SDS011;66825;51.880;-0.518;2024-03-25T00:14:59;2.00;;;1.20;;
39434;SDS011;66825;51.880;-0.518;2024-03-25T00:17:25;1.40;;;1.00;;
39434;SDS011;66825;51.880;-0.518;2024-03-25T00:19:51;1.40;;;1.00;;
39434;SDS011;66825;51.880;-0.518;2024-03-25T00:22:17;1.77;;;1.00;;
39434;SDS011;66825;51.880;-0.518;2024-03-25T00:24:45;1.88;;;1.10;;
39434;SDS011;66825;51.880;-0.518;2024-03-25T00:27:11;1.85;;;1.10;;
39434;SDS011;66825;51.880;-0.518;2024-03-25T00:29:37;2.00;;;1.20;;
39434;SDS011;66825;51.880;-0.518;2024-03-25T00:32:03;1.77;;;1.02;;
39434;SDS011;66825;51.880;-0.518;2024-03-25T00:34:29;1.65;;;1.00;;
39434;SDS011;66825;51.880;-0.518;2024-03-25T00:36:55;1.85;;;1.02;;
39434;SDS011;66825;51.880;-0.518;2024-03-25T00:39:20;1.73;;;1.10;;
39434;SDS011;66825;51.880;-0.518;2024-03-25T00:41:47;2.97;;;1.20;;
39434;SDS011;66825;51.880;-0.518;2024-03-25T00:44:12;2.00;;;1.20;;
39434;SDS011;66825;51.880;-0.518;2024-03-25T00:46:38;2.13;;;1.20;;
39434;SDS011;66825;51.880;-0.518;2024-03-25T00:49:04;1.77;;;1.20;;
39434;SDS011;66825;51.880;-0.518;2024-03-25T00:51:30;1.85;;;1.10;;
39434;SDS011;66825;51.880;-0.518;2024-03-25T00:53:55;1.80;;;1.20;;
39434;SDS011;66825;51.880;-0.518;2024-03-25T00:56:21;1.50;;;0.98;;
39434;SDS011;66825;51.880;-0.518;2024-03-25T00:58:46;1.45;;;1.00;;
39434;SDS011;66825;51.880;-0.518;2024-03-25T01:01:12;2.22;;;1.23;;
39434;SDS011;66825;51.880;-0.518;2024-03-25T01:03:39;2.28;;;1.20;;
39434;SDS011;66825;51.880;-0.518;2024-03-25T01:06:04;2.28;;;1.30;;
39434;SDS011;66825;51.880;-0.518;2024-03-25T01:08:30;1.77;;;1.30;;
39434;SDS011;66825;51.880;-0.518;2024-03-25T01:10:55;2.97;;;1.15;;
39434;SDS011;66825;51.880;-0.518;2024-03-25T01:13:21;1.83;;;1.10;;
39434;SDS011;66825;51.880;-0.518;2024-03-25T01:15:46;1.90;;;1.00;;
39434;SDS011;66825;51.880;-0.518;2024-03-25T01:18:12;1.35;;;1.00;;
39434;SDS011;66825;51.880;-0.518;2024-03-25T01:20:38;2.53;;;1.30;;
39434;SDS011;66825;51.880;-0.518;2024-03-25T01:23:04;3.33;;;1.08;;
39434;SDS011;66825;51.880;-0.518;2024-03-25T01:25:30;2.08;;;1.30;;
39434;SDS011;66825;51.880;-0.518;2024-03-25T01:27:55;1.90;;;1.20;;
39434;SDS011;66825;51.880;-0.518;2024-03-25T01:30:22;1.90;;;1.10;;
39434;SDS011;66825;51.880;-0.518;2024-03-25T01:32:47;1.75;;;1.15;;
39434;SDS011;66825;51.880;-0.518;2024-03-25T01:35:16;2.45;;;1.50;;
39434;SDS011;66825;51.880;-0.518;2024-03-25T01:37:42;1.88;;;1.10;;
39434;SDS011;66825;51.880;-0.518;2024-03-25T01:40:07;2.10;;;1.23;;
39434;SDS011;66825;51.880;-0.518;2024-03-25T01:42:35;1.60;;;1.17;;
39434;SDS011;66825;51.880;-0.518;2024-03-25T01:45:01;1.58;;;1.00;;
39434;SDS011;66825;51.880;-0.518;2024-03-25T01:47:28;2.30;;;1.30;;
39434;SDS011;66825;51.880;-0.518;2024-03-25T01:49:56;2.03;;;1.23;;
39434;SDS011;66825;51.880;-0.518;2024-03-25T01:52:22;1.92;;;1.20;;
39434;SDS011;66825;51.880;-0.518;2024-03-25T01:54:50;1.90;;;1.10;;
39434;SDS011;66825;51.880;-0.518;2024-03-25T01:57:15;1.88;;;1.15;;
39434;SDS011;66825;51.880;-0.518;2024-03-25T01:59:41;1.90;;;1.20;;
39434;SDS011;66825;51.880;-0.518;2024-03-25T02:02:07;1.83;;;1.30;;
39434;SDS011;66825;51.880;-0.518;2024-03-25T02:04:36;2.65;;;1.40;;
39434;SDS011;66825;51.880;-0.518;2024-03-25T02:07:03;1.88;;;1.00;;
39434;SDS011;66825;51.880;-0.518;2024-03-25T02:09:31;1.73;;;1.13;;
39434;SDS011;66825;51.880;-0.518;2024-03-25T02:11:57;2.08;;;1.42;;
39434;SDS011;66825;51.880;-0.518;2024-03-25T02:14:22;2.10;;;1.30;;
39434;SDS011;66825;51.880;-0.518;2024-03-25T02:16:48;2.08;;;1.27;;
39434;SDS011;66825;51.880;-0.518;2024-03-25T02:19:14;2.25;;;1.30;;
39434;SDS011;66825;51.880;-0.518;2024-03-25T02:21:41;1.95;;;1.20;;
39434;SDS011;66825;51.880;-0.518;2024-03-25T02:24:07;1.77;;;1.05;;
39434;SDS011;66825;51.880;-0.518;2024-03-25T02:26:35;1.58;;;1.10;;
39434;SDS011;66825;51.880;-0.518;2024-03-25T02:29:01;1.90;;;1.10;;
39434;SDS011;66825;51.880;-0.518;2024-03-25T02:31:27;1.92;;;1.05;;
39434;SDS011;66825;51.880;-0.518;2024-03-25T02:33:52;2.15;;;1.38;;
39434;SDS011;66825;51.880;-0.518;2024-03-25T02:36:18;2.05;;;1.10;;
39434;SDS011;66825;51.880;-0.518;2024-03-25T02:38:44;1.75;;;1.23;;
39434;SDS011;66825;51.880;-0.518;2024-03-25T02:41:09;2.47;;;1.20;;
39434;SDS011;66825;51.880;-0.518;2024-03-25T02:43:35;2.35;;;1.38;;
39434;SDS011;66825;51.880;-0.518;2024-03-25T02:46:00;2.22;;;1.20;;
39434;SDS011;66825;51.880;-0.518;2024-03-25T02:48:26;1.88;;;1.20;;
39434;SDS011;66825;51.880;-0.518;2024-03-25T02:50:52;2.15;;;1.20;;
39434;SDS011;66825;51.880;-0.518;2024-03-25T02:53:17;2.00;;;1.17;;
39434;SDS011;66825;51.880;-0.518;2024-03-25T02:55:42;2.65;;;1.40;;
39434;SDS011;66825;51.880;-0.518;2024-03-25T02:58:08;2.00;;;1.40;;
39434;SDS011;66825;51.880;-0.518;2024-03-25T03:00:34;2.20;;;1.23;;
39434;SDS011;66825;51.880;-0.518;2024-03-25T03:02:59;2.42;;;1.50;;
39434;SDS011;66825;51.880;-0.518;2024-03-25T03:05:25;2.65;;;1.20;;
39434;SDS011;66825;51.880;-0.518;2024-03-25T03:07:51;2.15;;;1.25;;
39434;SDS011;66825;51.880;-0.518;2024-03-25T03:10:16;1.95;;;1.25;;
39434;SDS011;66825;51.880;-0.518;2024-03-25T03:12:41;2.42;;;1.40;;
39434;SDS011;66825;51.880;-0.518;2024-03-25T03:15:07;1.83;;;1.33;;
39434;SDS011;66825;51.880;-0.518;2024-03-25T03:17:32;1.45;;;0.98;;
39434;SDS011;66825;51.880;-0.518;2024-03-25T03:19:58;2.35;;;1.27;;
39434;SDS011;66825;51.880;-0.518;2024-03-25T03:22:23;2.45;;;1.45;;
39434;SDS011;66825;51.880;-0.518;2024-03-25T03:24:49;1.92;;;1.30;;
39434;SDS011;66825;51.880;-0.518;2024-03-25T03:27:14;1.95;;;1.30;;
39434;SDS011;66825;51.880;-0.518;2024-03-25T03:29:40;2.03;;;1.30;;
39434;SDS011;66825;51.880;-0.518;2024-03-25T03:32:05;2.28;;;1.30;;
39434;SDS011;66825;51.880;-0.518;2024-03-25T03:34:31;2.40;;;1.23;;
39434;SDS011;66825;51.880;-0.518;2024-03-25T03:36:56;2.35;;;1.20;;
39434;SDS011;66825;51.880;-0.518;2024-03-25T03:39:22;2.20;;;1.27;;
39434;SDS011;66825;51.880;-0.518;2024-03-25T03:41:47;2.15;;;1.40;;
39434;SDS011;66825;51.880;-0.518;2024-03-25T03:44:13;2.22;;;1.33;;
39434;SDS011;66825;51.880;-0.518;2024-03-25T03:46:40;1.95;;;1.33;;
39434;SDS011;66825;51.880;-0.518;2024-03-25T03:49:05;2.42;;;1.30;;
39434;SDS011;66825;51.880;-0.518;2024-03-25T03:51:31;2.05;;;1.30;;
39434;SDS011;66825;51.880;-0.518;2024-03-25T03:53:56;2.00;;;1.20;;
39434;SDS011;66825;51.880;-0.518;2024-03-25T03:56:22;2.05;;;1.10;;
39434;SDS011;66825;51.880;-0.518;2024-03-25T03:58:48;1.73;;;1.20;;
39434;SDS011;66825;51.880;-0.518;2024-03-25T04:01:17;1.58;;;1.00;;
39434;SDS011;66825;51.880;-0.518;2024-03-25T04:03:44;2.30;;;1.30;;
39434;SDS011;66825;51.880;-0.518;2024-03-25T04:06:11;2.58;;;1.25;;
39434;SDS011;66825;51.880;-0.518;2024-03-25T04:08:37;2.83;;;1.30;;
39434;SDS011;66825;51.880;-0.518;2024-03-25T04:11:04;2.28;;;1.27;;
39434;SDS011;66825;51.880;-0.518;2024-03-25T04:13:31;2.28;;;1.50;;
39434;SDS011;66825;51.880;-0.518;2024-03-25T04:16:03;1.98;;;1.50;;
39434;SDS011;66825;51.880;-0.518;2024-03-25T04:18:30;2.92;;;1.75;;
39434;SDS011;66825;51.880;-0.518;2024-03-25T04:20:57;1.95;;;1.20;;
39434;SDS011;66825;51.880;-0.518;2024-03-25T04:23:22;2.00;;;1.38;;
39434;SDS011;66825;51.880;-0.518;2024-03-25T04:25:48;2.47;;;1.27;;
39434;SDS011;66825;51.880;-0.518;2024-03-25T04:28:14;3.05;;;1.35;;
39434;SDS011;66825;51.880;-0.518;2024-03-25T04:30:40;2.78;;;1.40;;
39434;SDS011;66825;51.880;-0.518;2024-03-25T04:33:05;1.75;;;1.20;;
39434;SDS011;66825;51.880;-0.518;2024-03-25T04:35:31;2.28;;;1.25;;
39434;SDS011;66825;51.880;-0.518;2024-03-25T04:37:57;2.55;;;1.30;;
39434;SDS011;66825;51.880;-0.518;2024-03-25T04:40:22;1.95;;;1.33;;
39434;SDS011;66825;51.880;-0.518;2024-03-25T04:42:48;2.45;;;1.48;;
39434;SDS011;66825;51.880;-0.518;2024-03-25T04:45:14;2.55;;;1.50;;
39434;SDS011;66825;51.880;-0.518;2024-03-25T04:47:39;2.55;;;1.50;;
39434;SDS011;66825;51.880;-0.518;2024-03-25T04:50:05;2.17;;;1.40;;
39434;SDS011;66825;51.880;-0.518;2024-03-25T04:52:32;2.15;;;1.40;;
39434;SDS011;66825;51.880;-0.518;2024-03-25T04:54:57;3.22;;;1.67;;
39434;SDS011;66825;51.880;-0.518;2024-03-25T04:57:23;2.13;;;1.30;;
39434;SDS011;66825;51.880;-0.518;2024-03-25T04:59:49;1.85;;;1.30;;
39434;SDS011;66825;51.880;-0.518;2024-03-25T05:02:14;1.90;;;1.30;;
39434;SDS011;66825;51.880;-0.518;2024-03-25T05:04:40;2.35;;;1.25;;
39434;SDS011;66825;51.880;-0.518;2024-03-25T05:07:05;2.03;;;1.30;;
39434;SDS011;66825;51.880;-0.518;2024-03-25T05:09:31;2.03;;;1.50;;
39434;SDS011;66825;51.880;-0.518;2024-03-25T05:11:57;2.55;;;1.30;;
39434;SDS011;66825;51.880;-0.518;2024-03-25T05:14:22;1.77;;;1.23;;
39434;SDS011;66825;51.880;-0.518;2024-03-25T05:16:48;2.45;;;1.45;;
39434;SDS011;66825;51.880;-0.518;2024-03-25T05:19:14;2.28;;;1.17;;
39434;SDS011;66825;51.880;-0.518;2024-03-25T05:21:40;2.78;;;1.20;;
39434;SDS011;66825;51.880;-0.518;2024-03-25T05:24:06;1.60;;;1.20;;
39434;SDS011;66825;51.880;-0.518;2024-03-25T05:26:31;2.50;;;1.27;;
39434;SDS011;66825;51.880;-0.518;2024-03-25T05:28:57;2.53;;;1.45;;
39434;SDS011;66825;51.880;-0.518;2024-03-25T05:31:23;2.17;;;1.27;;
39434;SDS011;66825;51.880;-0.518;2024-03-25T05:33:49;1.90;;;1.25;;
39434;SDS011;66825;51.880;-0.518;2024-03-25T05:36:14;2.65;;;1.27;;
39434;SDS011;66825;51.880;-0.518;2024-03-25T05:38:40;2.05;;;1.40;;
39434;SDS011;66825;51.880;-0.518;2024-03-25T05:41:07;2.03;;;1.30;;
39434;SDS011;66825;51.880;-0.518;2024-03-25T05:43:33;2.65;;;1.42;;
39434;SDS011;66825;51.880;-0.518;2024-03-25T05:45:58;2.60;;;1.50;;
39434;SDS011;66825;51.880;-0.518;2024-03-25T05:48:24;3.10;;;1.30;;
39434;SDS011;66825;51.880;-0.518;2024-03-25T05:51:00;3.38;;;1.60;;
39434;SDS011;66825;51.880;-0.518;2024-03-25T05:53:27;2.42;;;1.50;;
39434;SDS011;66825;51.880;-0.518;2024-03-25T05:55:52;2.63;;;1.48;;
39434;SDS011;66825;51.880;-0.518;2024-03-25T05:58:18;2.55;;;1.42;;
39434;SDS011;66825;51.880;-0.518;2024-03-25T06:00:46;2.17;;;1.40;;
39434;SDS011;66825;51.880;-0.518;2024-03-25T06:03:11;2.78;;;1.50;;
39434;SDS011;66825;51.880;-0.518;2024-03-25T06:05:37;2.15;;;1.30;;
39434;SDS011;66825;51.880;-0.518;2024-03-25T06:08:02;2.45;;;1.38;;
39434;SDS011;66825;51.880;-0.518;2024-03-25T06:10:28;1.88;;;1.35;;
39434;SDS011;66825;51.880;-0.518;2024-03-25T06:12:54;2.30;;;1.60;;
39434;SDS011;66825;51.880;-0.518;2024-03-25T06:15:19;3.03;;;1.50;;
39434;SDS011;66825;51.880;-0.518;2024-03-25T06:17:44;3.90;;;1.73;;
39434;SDS011;66825;51.880;-0.518;2024-03-25T06:20:10;2.72;;;1.40;;
39434;SDS011;66825;51.880;-0.518;2024-03-25T06:22:36;2.88;;;1.50;;
39434;SDS011;66825;51.880;-0.518;2024-03-25T06:25:01;2.50;;;1.48;;
39434;SDS011;66825;51.880;-0.518;2024-03-25T06:27:27;2.97;;;1.52;;
39434;SDS011;66825;51.880;-0.518;2024-03-25T06:29:52;2.28;;;1.40;;
39434;SDS011;66825;51.880;-0.518;2024-03-25T06:32:38;3.78;;;1.80;;
39434;SDS011;66825;51.880;-0.518;2024-03-25T06:35:22;2.88;;;1.48;;
39434;SDS011;66825;51.880;-0.518;2024-03-25T06:37:47;2.17;;;1.38;;
39434;SDS011;66825;51.880;-0.518;2024-03-25T06:40:13;4.05;;;1.65;;
39434;SDS011;66825;51.880;-0.518;2024-03-25T06:42:38;2.92;;;1.65;;
39434;SDS011;66825;51.880;-0.518;2024-03-25T06:45:04;3.65;;;1.50;;
39434;SDS011;66825;51.880;-0.518;2024-03-25T06:47:29;2.67;;;1.50;;
39434;SDS011;66825;51.880;-0.518;2024-03-25T06:49:55;3.30;;;1.60;;
39434;SDS011;66825;51.880;-0.518;2024-03-25T06:52:20;2.60;;;1.52;;
39434;SDS011;66825;51.880;-0.518;2024-03-25T06:54:46;2.97;;;1.55;;
39434;SDS011;66825;51.880;-0.518;2024-03-25T06:57:11;2.83;;;1.27;;
39434;SDS011;66825;51.880;-0.518;2024-03-25T06:59:36;1.92;;;1.35;;
39434;SDS011;66825;51.880;-0.518;2024-03-25T07:02:02;2.20;;;1.38;;
39434;SDS011;66825;51.880;-0.518;2024-03-25T07:04:28;3.05;;;1.42;;
39434;SDS011;66825;51.880;-0.518;2024-03-25T07:06:53;2.05;;;1.30;;
39434;SDS011;66825;51.880;-0.518;2024-03-25T07:09:18;2.28;;;1.38;;
39434;SDS011;66825;51.880;-0.518;2024-03-25T07:11:44;2.13;;;1.30;;
39434;SDS011;66825;51.880;-0.518;2024-03-25T07:14:12;2.90;;;1.50;;
39434;SDS011;66825;51.880;-0.518;2024-03-25T07:16:37;2.38;;;1.40;;
39434;SDS011;66825;51.880;-0.518;2024-03-25T07:19:03;3.15;;;1.40;;
39434;SDS011;66825;51.880;-0.518;2024-03-25T07:21:28;2.58;;;1.50;;
39434;SDS011;66825;51.880;-0.518;2024-03-25T07:23:54;2.65;;;1.52;;
39434;SDS011;66825;51.880;-0.518;2024-03-25T07:26:19;3.13;;;1.40;;
39434;SDS011;66825;51.880;-0.518;2024-03-25T07:28:44;2.88;;;1.70;;
39434;SDS011;66825;51.880;-0.518;2024-03-25T07:31:10;2.50;;;1.40;;
39434;SDS011;66825;51.880;-0.518;2024-03-25T07:33:35;2.03;;;1.40;;
39434;SDS011;66825;51.880;-0.518;2024-03-25T07:36:01;2.67;;;1.50;;
39434;SDS011;66825;51.880;-0.518;2024-03-25T07:38:26;2.80;;;1.52;;
39434;SDS011;66825;51.880;-0.518;2024-03-25T07:40:52;2.17;;;1.30;;
39434;SDS011;66825;51.880;-0.518;2024-03-25T07:43:17;2.40;;;1.33;;
39434;SDS011;66825;51.880;-0.518;2024-03-25T07:45:43;2.40;;;1.45;;
39434;SDS011;66825;51.880;-0.518;2024-03-25T07:48:08;2.42;;;1.35;;
39434;SDS011;66825;51.880;-0.518;2024-03-25T07:50:34;2.78;;;1.40;;
39434;SDS011;66825;51.880;-0.518;2024-03-25T07:52:59;2.28;;;1.38;;
39434;SDS011;66825;51.880;-0.518;2024-03-25T07:55:24;3.13;;;1.42;;
39434;SDS011;66825;51.880;-0.518;2024-03-25T07:57:50;2.67;;;1.40;;
39434;SDS011;66825;51.880;-0.518;2024-03-25T08:00:15;2.13;;;1.40;;
39434;SDS011;66825;51.880;-0.518;2024-03-25T08:02:41;2.53;;;1.38;;
39434;SDS011;66825;51.880;-0.518;2024-03-25T08:05:07;2.45;;;1.20;;
39434;SDS011;66825;51.880;-0.518;2024-03-25T08:07:33;1.75;;;1.30;;
39434;SDS011;66825;51.880;-0.518;2024-03-25T08:09:59;2.33;;;1.30;;
39434;SDS011;66825;51.880;-0.518;2024-03-25T08:12:24;2.38;;;1.30;;
39434;SDS011;66825;51.880;-0.518;2024-03-25T08:14:50;2.63;;;1.60;;
39434;SDS011;66825;51.880;-0.518;2024-03-25T08:17:15;3.45;;;1.40;;
39434;SDS011;66825;51.880;-0.518;2024-03-25T08:19:41;2.88;;;1.48;;
39434;SDS011;66825;51.880;-0.518;2024-03-25T08:22:09;2.35;;;1.30;;
39434;SDS011;66825;51.880;-0.518;2024-03-25T08:24:35;1.98;;;1.20;;
39434;SDS011;66825;51.880;-0.518;2024-03-25T08:27:00;2.58;;;1.38;;
39434;SDS011;66825;51.880;-0.518;2024-03-25T08:29:25;2.67;;;1.40;;
39434;SDS011;66825;51.880;-0.518;2024-03-25T08:31:51;4.22;;;1.90;;
39434;SDS011;66825;51.880;-0.518;2024-03-25T08:34:16;2.05;;;1.20;;
39434;SDS011;66825;51.880;-0.518;2024-03-25T08:36:42;2.65;;;1.33;;
39434;SDS011;66825;51.880;-0.518;2024-03-25T08:39:07;2.75;;;1.20;;
39434;SDS011;66825;51.880;-0.518;2024-03-25T08:41:32;2.75;;;1.40;;
39434;SDS011;66825;51.880;-0.518;2024-03-25T08:43:58;2.85;;;1.30;;
39434;SDS011;66825;51.880;-0.518;2024-03-25T08:46:23;2.03;;;1.30;;
39434;SDS011;66825;51.880;-0.518;2024-03-25T08:48:49;2.90;;;1.52;;
39434;SDS011;66825;51.880;-0.518;2024-03-25T08:51:14;2.30;;;1.20;;
39434;SDS011;66825;51.880;-0.518;2024-03-25T08:53:40;2.58;;;1.38;;
39434;SDS011;66825;51.880;-0.518;2024-03-25T08:56:05;2.20;;;1.30;;
39434;SDS011;66825;51.880;-0.518;2024-03-25T08:58:30;3.47;;;1.15;;
39434;SDS011;66825;51.880;-0.518;2024-03-25T09:00:56;1.95;;;1.13;;
39434;SDS011;66825;51.880;-0.518;2024-03-25T09:03:21;2.38;;;1.38;;
39434;SDS011;66825;51.880;-0.518;2024-03-25T09:05:48;3.08;;;1.58;;
39434;SDS011;66825;51.880;-0.518;2024-03-25T09:08:14;3.67;;;1.30;;
39434;SDS011;66825;51.880;-0.518;2024-03-25T09:10:39;2.55;;;1.15;;
39434;SDS011;66825;51.880;-0.518;2024-03-25T09:13:27;2.35;;;1.08;;
39434;SDS011;66825;51.880;-0.518;2024-03-25T09:15:52;2.03;;;1.02;;
39434;SDS011;66825;51.880;-0.518;2024-03-25T09:18:18;2.00;;;1.05;;
39434;SDS011;66825;51.880;-0.518;2024-03-25T09:20:44;3.13;;;1.20;;
39434;SDS011;66825;51.880;-0.518;2024-03-25T09:23:09;2.50;;;1.10;;
39434;SDS011;66825;51.880;-0.518;2024-03-25T09:25:35;2.92;;;1.42;;
39434;SDS011;66825;51.880;-0.518;2024-03-25T09:28:00;1.77;;;1.00;;
39434;SDS011;66825;51.880;-0.518;2024-03-25T09:30:26;4.07;;;1.35;;
39434;SDS011;66825;51.880;-0.518;2024-03-25T09:32:54;17.65;;;1.40;;
39434;SDS011;66825;51.880;-0.518;2024-03-25T09:35:20;2.67;;;1.17;;
39434;SDS011;66825;51.880;-0.518;2024-03-25T09:37:46;2.88;;;1.02;;
39434;SDS011;66825;51.880;-0.518;2024-03-25T09:40:11;2.05;;;1.20;;
39434;SDS011;66825;51.880;-0.518;2024-03-25T09:45:08;2.28;;;1.25;;
39434;SDS011;66825;51.880;-0.518;2024-03-25T09:47:36;2.63;;;1.10;;
39434;SDS011;66825;51.880;-0.518;2024-03-25T09:50:04;2.50;;;1.00;;
39434;SDS011;66825;51.880;-0.518;2024-03-25T09:52:33;4.30;;;1.42;;
39434;SDS011;66825;51.880;-0.518;2024-03-25T09:54:59;3.55;;;1.30;;
39434;SDS011;66825;51.880;-0.518;2024-03-25T09:57:24;4.18;;;1.55;;
39434;SDS011;66825;51.880;-0.518;2024-03-25T09:59:51;4.60;;;1.42;;
39434;SDS011;66825;51.880;-0.518;2024-03-25T10:02:16;7.00;;;1.75;;
39434;SDS011;66825;51.880;-0.518;2024-03-25T10:04:44;6.03;;;1.70;;
39434;SDS011;66825;51.880;-0.518;2024-03-25T10:07:12;5.68;;;1.67;;
39434;SDS011;66825;51.880;-0.518;2024-03-25T10:09:46;8.40;;;1.95;;
39434;SDS011;66825;51.880;-0.518;2024-03-25T10:12:12;6.35;;;1.85;;
39434;SDS011;66825;51.880;-0.518;2024-03-25T10:14:39;6.45;;;1.92;;
39434;SDS011;66825;51.880;-0.518;2024-03-25T10:17:05;16.67;;;4.10;;
39434;SDS011;66825;51.880;-0.518;2024-03-25T10:19:32;10.30;;;3.13;;
39434;SDS011;66825;51.880;-0.518;2024-03-25T10:22:05;10.93;;;2.83;;
39434;SDS011;66825;51.880;-0.518;2024-03-25T10:24:39;14.60;;;3.13;;
39434;SDS011;66825;51.880;-0.518;2024-03-25T10:27:05;7.40;;;2.20;;
39434;SDS011;66825;51.880;-0.518;2024-03-25T10:29:34;7.85;;;2.47;;
39434;SDS011;66825;51.880;-0.518;2024-03-25T10:32:00;12.43;;;2.92;;
39434;SDS011;66825;51.880;-0.518;2024-03-25T10:34:26;10.65;;;2.90;;
39434;SDS011;66825;51.880;-0.518;2024-03-25T10:36:52;10.48;;;2.92;;
39434;SDS011;66825;51.880;-0.518;2024-03-25T10:39:24;8.32;;;2.28;;
39434;SDS011;66825;51.880;-0.518;2024-03-25T10:41:53;8.38;;;2.55;;
39434;SDS011;66825;51.880;-0.518;2024-03-25T10:44:21;13.52;;;3.42;;
39434;SDS011;66825;51.880;-0.518;2024-03-25T10:46:50;12.50;;;3.30;;
39434;SDS011;66825;51.880;-0.518;2024-03-25T10:52:13;12.10;;;3.60;;
39434;SDS011;66825;51.880;-0.518;2024-03-25T10:54:40;9.73;;;2.80;;
39434;SDS011;66825;51.880;-0.518;2024-03-25T10:57:07;8.05;;;2.20;;
39434;SDS011;66825;51.880;-0.518;2024-03-25T10:59:35;14.88;;;3.80;;
39434;SDS011;66825;51.880;-0.518;2024-03-25T11:02:06;8.27;;;3.20;;
39434;SDS011;66825;51.880;-0.518;2024-03-25T11:04:32;11.02;;;2.90;;
39434;SDS011;66825;51.880;-0.518;2024-03-25T11:07:12;8.38;;;2.50;;
39434;SDS011;66825;51.880;-0.518;2024-03-25T11:09:39;9.07;;;2.63;;
39434;SDS011;66825;51.880;-0.518;2024-03-25T11:12:05;18.38;;;4.25;;
39434;SDS011;66825;51.880;-0.518;2024-03-25T11:14:31;10.88;;;3.05;;
39434;SDS011;66825;51.880;-0.518;2024-03-25T11:17:00;11.68;;;3.55;;
39434;SDS011;66825;51.880;-0.518;2024-03-25T11:19:27;9.90;;;2.80;;
39434;SDS011;66825;51.880;-0.518;2024-03-25T11:21:54;13.55;;;3.72;;
39434;SDS011;66825;51.880;-0.518;2024-03-25T11:24:31;9.05;;;2.95;;
39434;SDS011;66825;51.880;-0.518;2024-03-25T11:26:56;16.02;;;4.10;;
39434;SDS011;66825;51.880;-0.518;2024-03-25T11:29:22;10.23;;;3.15;;
39434;SDS011;66825;51.880;-0.518;2024-03-25T11:31:50;9.30;;;3.03;;
39434;SDS011;66825;51.880;-0.518;2024-03-25T11:34:18;9.05;;;3.30;;
39434;SDS011;66825;51.880;-0.518;2024-03-25T11:36:43;13.68;;;3.15;;
39434;SDS011;66825;51.880;-0.518;2024-03-25T11:39:09;13.65;;;2.97;;
39434;SDS011;66825;51.880;-0.518;2024-03-25T11:41:41;11.93;;;3.05;;
39434;SDS011;66825;51.880;-0.518;2024-03-25T11:44:08;8.02;;;2.95;;
39434;SDS011;66825;51.880;-0.518;2024-03-25T11:46:38;14.98;;;2.95;;
39434;SDS011;66825;51.880;-0.518;2024-03-25T11:49:15;8.43;;;2.83;;
39434;SDS011;66825;51.880;-0.518;2024-03-25T11:51:43;14.48;;;3.75;;
39434;SDS011;66825;51.880;-0.518;2024-03-25T11:54:10;29.65;;;7.65;;
39434;SDS011;66825;51.880;-0.518;2024-03-25T11:56:36;22.70;;;6.25;;
39434;SDS011;66825;51.880;-0.518;2024-03-25T11:59:05;14.60;;;4.68;;
39434;SDS011;66825;51.880;-0.518;2024-03-25T12:01:31;14.45;;;4.70;;
39434;SDS011;66825;51.880;-0.518;2024-03-25T12:03:57;18.58;;;4.38;;
39434;SDS011;66825;51.880;-0.518;2024-03-25T12:06:23;18.70;;;4.60;;
39434;SDS011;66825;51.880;-0.518;2024-03-25T12:08:48;15.75;;;4.10;;
39434;SDS011;66825;51.880;-0.518;2024-03-25T12:11:33;15.20;;;4.00;;
39434;SDS011;66825;51.880;-0.518;2024-03-25T12:13:59;16.58;;;3.90;;
39434;SDS011;66825;51.880;-0.518;2024-03-25T12:16:25;21.92;;;5.03;;
39434;SDS011;66825;51.880;-0.518;2024-03-25T12:18:51;18.08;;;4.55;;
39434;SDS011;66825;51.880;-0.518;2024-03-25T12:21:19;25.60;;;6.43;;
39434;SDS011;66825;51.880;-0.518;2024-03-25T12:23:45;12.95;;;4.18;;
39434;SDS011;66825;51.880;-0.518;2024-03-25T12:26:12;11.88;;;3.20;;
39434;SDS011;66825;51.880;-0.518;2024-03-25T12:28:39;17.02;;;3.92;;
39434;SDS011;66825;51.880;-0.518;2024-03-25T12:31:07;12.10;;;3.08;;
39434;SDS011;66825;51.880;-0.518;2024-03-25T12:36:25;13.02;;;3.17;;
39434;SDS011;66825;51.880;-0.518;2024-03-25T12:38:54;15.27;;;3.92;;
39434;SDS011;66825;51.880;-0.518;2024-03-25T12:41:21;19.50;;;4.32;;
39434;SDS011;66825;51.880;-0.518;2024-03-25T12:43:48;13.15;;;3.05;;
39434;SDS011;66825;51.880;-0.518;2024-03-25T12:46:15;14.35;;;3.17;;
39434;SDS011;66825;51.880;-0.518;2024-03-25T12:48:41;26.15;;;5.28;;
39434;SDS011;66825;51.880;-0.518;2024-03-25T12:51:11;14.00;;;4.15;;
39434;SDS011;66825;51.880;-0.518;2024-03-25T12:53:38;21.75;;;4.20;;
39434;SDS011;66825;51.880;-0.518;2024-03-25T12:56:03;12.15;;;3.65;;
39434;SDS011;66825;51.880;-0.518;2024-03-25T12:58:29;11.60;;;3.05;;
39434;SDS011;66825;51.880;-0.518;2024-03-25T13:00:54;13.65;;;4.05;;
39434;SDS011;66825;51.880;-0.518;2024-03-25T13:03:21;10.27;;;2.88;;
39434;SDS011;66825;51.880;-0.518;2024-03-25T13:05:46;14.98;;;3.60;;
39434;SDS011;66825;51.880;-0.518;2024-03-25T13:08:12;9.50;;;2.78;;
39434;SDS011;66825;51.880;-0.518;2024-03-25T13:10:37;14.65;;;4.07;;
39434;SDS011;66825;51.880;-0.518;2024-03-25T13:13:03;14.07;;;3.30;;
39434;SDS011;66825;51.880;-0.518;2024-03-25T13:15:30;15.90;;;4.10;;
39434;SDS011;66825;51.880;-0.518;2024-03-25T13:17:56;13.30;;;3.47;;
39434;SDS011;66825;51.880;-0.518;2024-03-25T13:20:22;11.95;;;3.80;;
39434;SDS011;66825;51.880;-0.518;2024-03-25T13:22:54;10.80;;;3.40;;
39434;SDS011;66825;51.880;-0.518;2024-03-25T13:25:24;12.00;;;3.10;;
39434;SDS011;66825;51.880;-0.518;2024-03-25T13:27:50;23.63;;;5.10;;
39434;SDS011;66825;51.880;-0.518;2024-03-25T13:30:15;12.50;;;3.38;;
39434;SDS011;66825;51.880;-0.518;2024-03-25T13:32:41;16.75;;;4.07;;
39434;SDS011;66825;51.880;-0.518;2024-03-25T13:35:06;11.45;;;3.50;;
39434;SDS011;66825;51.880;-0.518;2024-03-25T13:37:32;14.05;;;4.30;;
39434;SDS011;66825;51.880;-0.518;2024-03-25T13:39:57;9.50;;;3.35;;
39434;SDS011;66825;51.880;-0.518;2024-03-25T13:42:23;14.65;;;4.20;;
39434;SDS011;66825;51.880;-0.518;2024-03-25T13:44:48;10.02;;;3.42;;
39434;SDS011;66825;51.880;-0.518;2024-03-25T13:47:14;11.80;;;3.40;;
39434;SDS011;66825;51.880;-0.518;2024-03-25T13:49:39;24.10;;;4.07;;
39434;SDS011;66825;51.880;-0.518;2024-03-25T13:52:05;19.55;;;4.00;;
39434;SDS011;66825;51.880;-0.518;2024-03-25T13:54:30;18.35;;;4.20;;
39434;SDS011;66825;51.880;-0.518;2024-03-25T13:56:56;27.92;;;5.20;;
39434;SDS011;66825;51.880;-0.518;2024-03-25T13:59:22;15.57;;;4.30;;
39434;SDS011;66825;51.880;-0.518;2024-03-25T14:01:47;14.27;;;3.33;;
39434;SDS011;66825;51.880;-0.518;2024-03-25T14:04:13;12.68;;;3.60;;
39434;SDS011;66825;51.880;-0.518;2024-03-25T14:06:39;15.85;;;3.55;;
39434;SDS011;66825;51.880;-0.518;2024-03-25T14:09:05;14.30;;;3.33;;
39434;SDS011;66825;51.880;-0.518;2024-03-25T14:11:34;15.90;;;2.97;;
39434;SDS011;66825;51.880;-0.518;2024-03-25T14:14:00;12.55;;;3.15;;
39434;SDS011;66825;51.880;-0.518;2024-03-25T14:16:25;12.40;;;2.75;;
39434;SDS011;66825;51.880;-0.518;2024-03-25T14:18:51;13.60;;;3.30;;
39434;SDS011;66825;51.880;-0.518;2024-03-25T14:21:16;15.73;;;3.40;;
39434;SDS011;66825;51.880;-0.518;2024-03-25T14:23:41;11.50;;;3.20;;
39434;SDS011;66825;51.880;-0.518;2024-03-25T14:26:14;12.63;;;3.20;;
39434;SDS011;66825;51.880;-0.518;2024-03-25T14:28:40;14.07;;;3.17;;
39434;SDS011;66825;51.880;-0.518;2024-03-25T14:31:06;14.35;;;3.67;;
39434;SDS011;66825;51.880;-0.518;2024-03-25T14:33:31;16.80;;;3.78;;